Time;durP1;ratioP1;P1;durP2;ratioP2;P2;SDS_P1;SDS_P2;PMS_P1;PMS_P2;Temp;Humidity;BMP_temperature;BMP_pressure;BME280_temperature;BME280_humidity;BME280_pressure;Samples;Min_cycle;Max_cycle;Signal;HPM_P1;HPM_P2
2022/06/15 00:01:26;;;;;;;25.70;7.10;;;;;;;;;;5063694;28;20031;-69
2022/06/15 00:03:52;;;;;;;16.42;5.22;;;;;;;;;;5067627;28;20762;-70
2022/06/15 00:06:27;;;;;;;15.85;4.97;;;;;;;;;;5065920;28;20027;-70
2022/06/15 00:08:54;;;;;;;18.80;5.35;;;;;;;;;;5059515;28;20110;-70
2022/06/15 00:11:22;;;;;;;200.07;64.38;;;;;;;;;;5064529;28;20024;-70
2022/06/15 00:13:48;;;;;;;254.52;70.97;;;;;;;;;;5065385;28;20481;-70
2022/06/15 00:16:13;;;;;;;43.63;11.85;;;;;;;;;;5068666;28;20033;-70
2022/06/15 00:18:39;;;;;;;105.53;32.55;;;;;;;;;;5073368;28;20043;-69
2022/06/15 00:21:04;;;;;;;67.70;18.98;;;;;;;;;;5065511;28;20024;-71
2022/06/15 00:23:30;;;;;;;146.73;40.47;;;;;;;;;;5061494;28;20096;-70
2022/06/15 00:25:55;;;;;;;32.40;10.13;;;;;;;;;;5056809;28;20023;-69
2022/06/15 00:28:21;;;;;;;40.95;14.60;;;;;;;;;;5073896;28;20016;-69
2022/06/15 00:30:49;;;;;;;188.70;50.95;;;;;;;;;;5067062;28;20032;-70
2022/06/15 00:33:14;;;;;;;249.43;66.22;;;;;;;;;;5063792;28;20033;-69
2022/06/15 00:35:39;;;;;;;57.13;17.97;;;;;;;;;;5072799;28;20013;-69
2022/06/15 00:38:05;;;;;;;32.25;9.00;;;;;;;;;;5070653;28;20275;-70
2022/06/15 00:40:30;;;;;;;19.10;7.60;;;;;;;;;;5071729;28;20031;-69
2022/06/15 00:42:55;;;;;;;39.67;11.48;;;;;;;;;;5066347;28;20513;-69
2022/06/15 00:45:21;;;;;;;33.17;11.23;;;;;;;;;;5069516;28;20052;-69
2022/06/15 00:47:47;;;;;;;52.75;15.80;;;;;;;;;;5061622;28;20131;-69
2022/06/15 00:50:16;;;;;;;77.38;27.25;;;;;;;;;;5067000;28;20029;-69
2022/06/15 00:52:46;;;;;;;64.80;24.58;;;;;;;;;;5067084;28;20028;-69
2022/06/15 00:55:18;;;;;;;20.45;8.07;;;;;;;;;;5066461;28;20029;-69
2022/06/15 00:57:43;;;;;;;30.50;11.98;;;;;;;;;;5066186;28;20051;-69
2022/06/15 01:00:12;;;;;;;90.10;27.80;;;;;;;;;;5073788;28;20017;-69
2022/06/15 01:02:37;;;;;;;195.10;62.30;;;;;;;;;;5075073;28;20056;-69
2022/06/15 01:05:05;;;;;;;63.13;24.98;;;;;;;;;;5068712;28;20052;-69
2022/06/15 01:07:49;;;;;;;29.63;10.20;;;;;;;;;;5073080;28;20099;-69
2022/06/15 01:10:25;;;;;;;17.65;6.18;;;;;;;;;;5070390;28;20948;-69
2022/06/15 01:12:59;;;;;;;14.25;5.85;;;;;;;;;;5060358;28;20561;-69
2022/06/15 01:15:32;;;;;;;22.63;4.97;;;;;;;;;;5067897;28;20019;-70
2022/06/15 01:18:05;;;;;;;14.88;4.28;;;;;;;;;;5060529;28;20032;-69
2022/06/15 01:20:33;;;;;;;13.57;4.40;;;;;;;;;;5063782;28;20095;-69
2022/06/15 01:23:17;;;;;;;9.85;4.20;;;;;;;;;;5066730;28;20020;-69
2022/06/15 01:25:51;;;;;;;14.27;4.57;;;;;;;;;;5070125;28;20033;-69
2022/06/15 01:28:16;;;;;;;17.05;5.45;;;;;;;;;;5059768;28;20555;-69
2022/06/15 01:30:49;;;;;;;13.77;4.15;;;;;;;;;;5066363;28;20099;-69
2022/06/15 01:33:18;;;;;;;12.25;5.05;;;;;;;;;;5060335;28;20154;-69
2022/06/15 01:35:47;;;;;;;9.20;4.50;;;;;;;;;;5071928;28;20029;-69
2022/06/15 01:38:21;;;;;;;8.00;4.97;;;;;;;;;;5065982;28;20025;-69
2022/06/15 01:41:06;;;;;;;12.27;5.28;;;;;;;;;;5069506;28;20017;-69
2022/06/15 01:43:33;;;;;;;11.60;4.88;;;;;;;;;;5052693;28;20064;-69
2022/06/15 01:45:59;;;;;;;7.85;4.70;;;;;;;;;;5059270;28;20653;-69
2022/06/15 01:48:26;;;;;;;12.57;5.50;;;;;;;;;;5065010;28;20054;-69
2022/06/15 01:50:53;;;;;;;14.98;5.95;;;;;;;;;;5061068;28;20067;-69
2022/06/15 01:53:38;;;;;;;11.05;4.47;;;;;;;;;;5066934;28;20018;-69
2022/06/15 01:56:16;;;;;;;13.13;4.70;;;;;;;;;;5064164;28;20036;-69
2022/06/15 01:58:42;;;;;;;9.70;4.75;;;;;;;;;;5064156;28;20120;-69
2022/06/15 02:01:20;;;;;;;9.35;4.75;;;;;;;;;;5064064;28;20047;-69
2022/06/15 02:03:52;;;;;;;11.15;5.13;;;;;;;;;;5070342;28;20024;-69
2022/06/15 02:06:36;;;;;;;20.05;5.10;;;;;;;;;;5071296;28;20097;-69
2022/06/15 02:09:20;;;;;;;11.43;5.07;;;;;;;;;;5068925;28;20103;-69
2022/06/15 02:11:45;;;;;;;12.32;5.10;;;;;;;;;;5060413;28;20450;-69
2022/06/15 02:14:14;;;;;;;11.00;4.70;;;;;;;;;;5066602;28;20053;-69
2022/06/15 02:16:39;;;;;;;10.05;4.78;;;;;;;;;;5052315;28;20267;-69
2022/06/15 02:19:06;;;;;;;18.80;4.70;;;;;;;;;;5073363;28;20373;-69
2022/06/15 02:21:33;;;;;;;8.27;4.53;;;;;;;;;;5070961;28;20091;-69
2022/06/15 02:24:00;;;;;;;10.73;4.82;;;;;;;;;;5070871;28;20023;-69
2022/06/15 02:26:27;;;;;;;12.35;5.43;;;;;;;;;;5069627;28;20389;-69
2022/06/15 02:28:55;;;;;;;15.98;5.50;;;;;;;;;;5067528;28;20563;-69
2022/06/15 02:31:20;;;;;;;22.70;4.82;;;;;;;;;;5069424;28;20020;-69
2022/06/15 02:33:48;;;;;;;9.45;4.70;;;;;;;;;;5071131;28;20441;-69
2022/06/15 02:36:13;;;;;;;13.18;4.90;;;;;;;;;;5069438;28;20103;-69
2022/06/15 02:38:38;;;;;;;9.35;4.88;;;;;;;;;;5071984;28;20135;-70
2022/06/15 02:41:04;;;;;;;9.65;4.38;;;;;;;;;;5070385;28;20024;-69
2022/06/15 02:43:30;;;;;;;15.18;4.90;;;;;;;;;;5059421;28;20036;-69
2022/06/15 02:45:57;;;;;;;10.20;5.07;;;;;;;;;;5066623;28;20029;-69
2022/06/15 02:48:23;;;;;;;9.77;4.88;;;;;;;;;;5060780;28;20009;-69
2022/06/15 02:50:51;;;;;;;9.25;4.70;;;;;;;;;;5069657;28;20077;-69
2022/06/15 02:53:18;;;;;;;19.23;5.32;;;;;;;;;;5067408;28;20473;-69
2022/06/15 02:55:44;;;;;;;12.82;5.07;;;;;;;;;;5063244;28;20031;-69
2022/06/15 02:58:11;;;;;;;11.10;5.00;;;;;;;;;;5064051;28;20029;-69
2022/06/15 03:00:37;;;;;;;12.90;5.82;;;;;;;;;;5064172;28;20472;-69
2022/06/15 03:03:02;;;;;;;13.73;5.70;;;;;;;;;;5063573;28;20051;-70
2022/06/15 03:05:27;;;;;;;11.20;5.25;;;;;;;;;;5059665;28;20381;-69
2022/06/15 03:07:53;;;;;;;12.23;5.63;;;;;;;;;;5072959;28;20024;-69
2022/06/15 03:10:18;;;;;;;9.87;5.53;;;;;;;;;;5069310;28;20306;-69
2022/06/15 03:12:43;;;;;;;11.48;5.32;;;;;;;;;;5066977;28;20888;-69
2022/06/15 03:15:10;;;;;;;9.35;5.13;;;;;;;;;;5062964;28;20500;-69
2022/06/15 03:17:35;;;;;;;10.20;5.32;;;;;;;;;;5069051;28;20024;-69
2022/06/15 03:20:00;;;;;;;11.77;5.47;;;;;;;;;;5067301;28;20021;-69
2022/06/15 03:22:25;;;;;;;8.97;5.10;;;;;;;;;;5069536;28;20012;-69
2022/06/15 03:24:50;;;;;;;13.93;6.07;;;;;;;;;;5070068;28;20275;-69
2022/06/15 03:27:18;;;;;;;14.17;5.77;;;;;;;;;;5057384;28;20151;-69
2022/06/15 03:29:43;;;;;;;16.20;6.78;;;;;;;;;;5069654;28;20267;-69
2022/06/15 03:32:12;;;;;;;15.00;5.37;;;;;;;;;;5068736;28;20557;-69
2022/06/15 03:34:37;;;;;;;10.77;5.38;;;;;;;;;;5070615;28;20411;-69
2022/06/15 03:37:02;;;;;;;13.50;6.43;;;;;;;;;;5069995;28;20103;-69
2022/06/15 03:39:27;;;;;;;19.02;6.20;;;;;;;;;;5068011;28;20270;-69
2022/06/15 03:41:53;;;;;;;8.77;5.73;;;;;;;;;;5069995;28;20155;-69
2022/06/15 03:44:18;;;;;;;14.97;6.27;;;;;;;;;;5050660;28;20286;-69
2022/06/15 03:46:43;;;;;;;11.70;5.53;;;;;;;;;;5060955;28;20367;-69
2022/06/15 03:49:08;;;;;;;16.27;6.10;;;;;;;;;;5063466;28;20283;-69
2022/06/15 03:51:33;;;;;;;16.47;6.23;;;;;;;;;;5069279;28;20265;-69
2022/06/15 03:53:58;;;;;;;12.70;5.20;;;;;;;;;;5068967;28;20773;-69
2022/06/15 03:56:38;;;;;;;14.13;6.03;;;;;;;;;;5067781;28;20283;-69
2022/06/15 03:59:04;;;;;;;10.55;6.10;;;;;;;;;;5073140;28;20687;-69
2022/06/15 04:01:29;;;;;;;12.30;6.00;;;;;;;;;;5063119;28;20536;-69
2022/06/15 04:03:54;;;;;;;10.60;5.13;;;;;;;;;;5067817;28;20322;-69
2022/06/15 04:06:19;;;;;;;12.32;6.28;;;;;;;;;;5066361;28;20763;-69
2022/06/15 04:08:44;;;;;;;10.57;5.63;;;;;;;;;;5059318;28;20421;-69
2022/06/15 04:11:11;;;;;;;14.10;5.63;;;;;;;;;;5070017;28;20283;-69
2022/06/15 04:13:36;;;;;;;10.57;5.93;;;;;;;;;;5060889;28;20287;-69
2022/06/15 04:16:04;;;;;;;9.80;5.50;;;;;;;;;;5063788;28;20023;-69
2022/06/15 04:18:29;;;;;;;16.73;5.97;;;;;;;;;;5058205;28;20024;-69
2022/06/15 04:20:54;;;;;;;11.93;5.53;;;;;;;;;;5060672;28;20039;-69
2022/06/15 04:23:20;;;;;;;12.63;5.53;;;;;;;;;;5053402;28;20263;-69
2022/06/15 04:25:58;;;;;;;7.75;5.63;;;;;;;;;;5066958;28;20020;-69
2022/06/15 04:28:24;;;;;;;7.97;5.13;;;;;;;;;;5065511;28;20093;-69
2022/06/15 04:30:49;;;;;;;16.48;5.38;;;;;;;;;;5071670;28;20037;-69
2022/06/15 04:33:16;;;;;;;8.60;4.85;;;;;;;;;;5070942;28;20059;-69
2022/06/15 04:35:41;;;;;;;13.48;6.13;;;;;;;;;;5070766;28;20065;-69
2022/06/15 04:38:06;;;;;;;16.80;5.50;;;;;;;;;;5067420;28;20033;-69
2022/06/15 04:40:33;;;;;;;18.23;5.70;;;;;;;;;;5070743;28;20274;-70
2022/06/15 04:42:58;;;;;;;10.27;4.63;;;;;;;;;;5066913;28;20282;-69
2022/06/15 04:45:23;;;;;;;14.40;5.60;;;;;;;;;;5063970;28;20024;-69
2022/06/15 04:47:48;;;;;;;15.20;5.47;;;;;;;;;;5066262;28;20033;-69
2022/06/15 04:50:14;;;;;;;10.45;5.38;;;;;;;;;;5066674;28;20024;-69
2022/06/15 04:52:41;;;;;;;8.75;5.80;;;;;;;;;;5066689;28;20039;-69
2022/06/15 04:55:07;;;;;;;13.60;5.00;;;;;;;;;;5071504;28;20109;-69
2022/06/15 04:57:32;;;;;;;9.10;5.25;;;;;;;;;;5063784;28;20028;-69
2022/06/15 04:59:57;;;;;;;11.85;4.90;;;;;;;;;;5057290;28;20016;-69
2022/06/15 05:02:23;;;;;;;12.02;5.00;;;;;;;;;;5064548;28;20056;-69
2022/06/15 05:04:48;;;;;;;9.50;5.20;;;;;;;;;;5058955;28;20021;-70
2022/06/15 05:07:13;;;;;;;15.52;4.80;;;;;;;;;;5066637;28;20771;-70
2022/06/15 05:09:39;;;;;;;15.77;4.60;;;;;;;;;;5068742;28;20013;-70
2022/06/15 05:12:05;;;;;;;11.40;4.13;;;;;;;;;;5069147;28;20447;-70
2022/06/15 05:14:30;;;;;;;10.80;3.90;;;;;;;;;;5060881;28;20021;-70
2022/06/15 05:16:55;;;;;;;13.00;5.27;;;;;;;;;;5067898;28;20108;-70
2022/06/15 05:19:20;;;;;;;13.05;5.00;;;;;;;;;;5067990;28;20332;-70
2022/06/15 05:21:46;;;;;;;10.97;4.87;;;;;;;;;;5052506;28;20116;-69
2022/06/15 05:24:12;;;;;;;8.90;4.68;;;;;;;;;;5064815;28;20290;-70
2022/06/15 05:26:37;;;;;;;7.28;4.35;;;;;;;;;;5068329;28;20020;-70
2022/06/15 05:29:03;;;;;;;7.00;4.13;;;;;;;;;;5061216;28;20682;-70
2022/06/15 05:31:28;;;;;;;11.48;4.20;;;;;;;;;;5056317;28;20028;-69
2022/06/15 05:33:54;;;;;;;17.80;4.33;;;;;;;;;;5051247;28;20725;-69
2022/06/15 05:36:21;;;;;;;13.13;3.67;;;;;;;;;;5065538;28;20298;-69
2022/06/15 05:38:46;;;;;;;11.75;5.30;;;;;;;;;;5067510;28;21662;-69
2022/06/15 05:41:12;;;;;;;7.88;3.35;;;;;;;;;;5056582;28;20036;-69
2022/06/15 05:43:45;;;;;;;10.48;3.75;;;;;;;;;;5064109;28;20032;-69
2022/06/15 05:46:13;;;;;;;10.50;4.18;;;;;;;;;;5062381;28;20028;-69
2022/06/15 05:48:38;;;;;;;12.80;3.60;;;;;;;;;;5058011;28;20104;-69
2022/06/15 05:51:03;;;;;;;13.15;5.07;;;;;;;;;;5054402;28;20124;-69
2022/06/15 05:53:30;;;;;;;13.33;3.30;;;;;;;;;;5064643;28;20103;-69
2022/06/15 05:55:55;;;;;;;14.15;3.80;;;;;;;;;;5057447;28;20273;-69
2022/06/15 05:58:21;;;;;;;9.20;3.67;;;;;;;;;;5065460;28;20017;-69
2022/06/15 06:00:46;;;;;;;11.85;3.67;;;;;;;;;;5068690;28;20659;-69
2022/06/15 06:03:11;;;;;;;12.33;3.63;;;;;;;;;;5066012;28;20455;-69
2022/06/15 06:05:36;;;;;;;10.30;3.10;;;;;;;;;;5069912;28;20271;-69
2022/06/15 06:08:01;;;;;;;9.13;3.63;;;;;;;;;;5064701;28;20331;-69
2022/06/15 06:10:27;;;;;;;15.95;3.95;;;;;;;;;;5057489;28;20274;-70
2022/06/15 06:12:52;;;;;;;11.48;3.65;;;;;;;;;;5065613;28;20473;-70
2022/06/15 06:15:17;;;;;;;6.90;3.33;;;;;;;;;;5059276;28;20604;-70
2022/06/15 06:17:42;;;;;;;9.93;3.85;;;;;;;;;;5052212;28;20271;-70
2022/06/15 06:20:08;;;;;;;8.63;3.22;;;;;;;;;;5050904;28;20024;-71
2022/06/15 06:22:33;;;;;;;9.65;2.65;;;;;;;;;;5064065;28;20020;-71
2022/06/15 06:24:58;;;;;;;12.00;2.83;;;;;;;;;;5059447;28;20460;-70
2022/06/15 06:27:23;;;;;;;13.88;3.25;;;;;;;;;;5058947;28;20354;-69
2022/06/15 06:29:49;;;;;;;5.53;2.97;;;;;;;;;;5068804;28;20108;-70
2022/06/15 06:32:14;;;;;;;8.03;2.60;;;;;;;;;;5068399;28;20099;-70
2022/06/15 06:34:40;;;;;;;12.02;3.17;;;;;;;;;;5067443;28;20301;-70
2022/06/15 06:37:07;;;;;;;8.02;3.03;;;;;;;;;;5055676;28;20028;-70
2022/06/15 06:39:32;;;;;;;11.88;3.55;;;;;;;;;;5061656;28;20403;-70
2022/06/15 06:41:59;;;;;;;9.63;3.27;;;;;;;;;;5061152;28;20021;-70
2022/06/15 06:44:24;;;;;;;9.27;4.00;;;;;;;;;;5071523;28;20298;-69
2022/06/15 06:46:50;;;;;;;8.90;3.67;;;;;;;;;;5066161;28;20036;-68
2022/06/15 06:49:16;;;;;;;12.35;3.30;;;;;;;;;;5064006;28;20366;-68
2022/06/15 06:51:42;;;;;;;8.70;3.30;;;;;;;;;;5071544;28;20111;-69
2022/06/15 06:54:08;;;;;;;11.48;3.55;;;;;;;;;;5069828;28;20027;-68
2022/06/15 06:56:34;;;;;;;11.30;3.38;;;;;;;;;;5062219;28;20067;-68
2022/06/15 06:58:59;;;;;;;8.13;3.05;;;;;;;;;;5066657;28;20024;-69
2022/06/15 07:01:25;;;;;;;7.72;2.70;;;;;;;;;;5065809;28;20012;-69
2022/06/15 07:03:50;;;;;;;8.43;2.93;;;;;;;;;;5069875;28;20024;-69
2022/06/15 07:06:15;;;;;;;5.83;2.33;;;;;;;;;;5064129;28;20278;-70
2022/06/15 07:08:40;;;;;;;8.23;2.75;;;;;;;;;;5056860;28;20290;-68
2022/06/15 07:11:09;;;;;;;8.67;3.07;;;;;;;;;;5061809;28;20037;-69
2022/06/15 07:13:35;;;;;;;7.47;2.85;;;;;;;;;;5070074;28;20034;-69
2022/06/15 07:16:04;;;;;;;7.87;2.57;;;;;;;;;;5067293;28;20602;-69
2022/06/15 07:18:29;;;;;;;11.77;2.63;;;;;;;;;;5068708;28;20024;-69
2022/06/15 07:20:54;;;;;;;8.27;2.40;;;;;;;;;;5066527;28;20754;-69
2022/06/15 07:23:19;;;;;;;8.87;3.47;;;;;;;;;;5051709;28;20024;-69
2022/06/15 07:25:45;;;;;;;9.77;2.57;;;;;;;;;;5061762;28;20795;-70
2022/06/15 07:28:10;;;;;;;5.53;2.00;;;;;;;;;;5065170;28;20275;-69
2022/06/15 07:30:36;;;;;;;7.07;2.87;;;;;;;;;;5072483;28;20271;-69
2022/06/15 07:33:01;;;;;;;9.82;2.50;;;;;;;;;;5063322;28;20051;-70
2022/06/15 07:35:29;;;;;;;5.60;2.35;;;;;;;;;;5067257;28;20059;-68
2022/06/15 07:37:54;;;;;;;7.88;2.30;;;;;;;;;;5058909;28;20021;-68
2022/06/15 07:40:20;;;;;;;10.02;2.38;;;;;;;;;;5054590;28;20009;-68
2022/06/15 07:42:46;;;;;;;8.50;2.15;;;;;;;;;;5065298;28;20497;-68
2022/06/15 07:45:13;;;;;;;8.52;2.78;;;;;;;;;;5073000;28;20016;-69
2022/06/15 07:50:22;;;;;;;;;;;;;;;;;;5063969;28;20031;-69
2022/06/15 07:52:49;;;;;;;5.45;2.75;;;;;;;;;;5056995;28;19995;-70
2022/06/15 07:55:16;;;;;;;8.10;2.67;;;;;;;;;;5048372;28;20020;-69
2022/06/15 07:57:41;;;;;;;7.07;2.22;;;;;;;;;;5069692;28;20013;-69
2022/06/15 08:00:08;;;;;;;6.73;3.20;;;;;;;;;;5059172;28;20039;-69
2022/06/15 08:02:33;;;;;;;8.93;1.83;;;;;;;;;;5063154;28;20047;-69
2022/06/15 08:04:59;;;;;;;5.37;1.93;;;;;;;;;;5067842;28;20393;-68
2022/06/15 08:07:24;;;;;;;10.32;2.45;;;;;;;;;;5068889;28;20052;-68
2022/06/15 08:09:49;;;;;;;11.80;2.33;;;;;;;;;;5064305;28;20020;-68
2022/06/15 08:12:16;;;;;;;10.60;2.13;;;;;;;;;;5065919;28;20109;-68
2022/06/15 08:14:43;;;;;;;5.97;2.22;;;;;;;;;;5061960;28;20013;-67
2022/06/15 08:17:10;;;;;;;8.55;1.98;;;;;;;;;;5062048;28;20021;-68
2022/06/15 08:19:37;;;;;;;6.82;2.22;;;;;;;;;;5065839;28;20044;-68
2022/06/15 08:22:02;;;;;;;12.55;2.47;;;;;;;;;;5069521;28;20020;-69
2022/06/15 08:24:28;;;;;;;10.65;2.70;;;;;;;;;;5071710;28;20036;-68
2022/06/15 08:26:53;;;;;;;6.75;2.28;;;;;;;;;;5061788;28;20025;-69
2022/06/15 08:29:19;;;;;;;10.30;2.47;;;;;;;;;;5063353;28;20021;-68
2022/06/15 08:31:45;;;;;;;9.40;2.97;;;;;;;;;;5067896;28;20085;-68
2022/06/15 08:34:10;;;;;;;4.20;1.77;;;;;;;;;;5067979;28;20040;-69
2022/06/15 08:36:36;;;;;;;7.63;1.98;;;;;;;;;;5063575;28;20078;-68
2022/06/15 08:39:02;;;;;;;6.32;1.67;;;;;;;;;;5064641;28;20024;-69
2022/06/15 08:41:39;;;;;;;8.48;2.33;;;;;;;;;;5070980;28;20025;-69
2022/06/15 08:44:17;;;;;;;5.63;2.08;;;;;;;;;;5062327;28;20035;-68
2022/06/15 08:47:00;;;;;;;7.32;3.28;;;;;;;;;;5060434;28;20031;-69
2022/06/15 08:49:42;;;;;;;3.53;1.90;;;;;;;;;;5059942;28;20017;-69
2022/06/15 08:52:14;;;;;;;6.07;2.00;;;;;;;;;;5060187;28;20030;-69
2022/06/15 08:54:42;;;;;;;4.03;1.90;;;;;;;;;;5066757;28;20380;-69
2022/06/15 08:57:07;;;;;;;10.23;1.98;;;;;;;;;;5065741;28;20067;-69
2022/06/15 08:59:49;;;;;;;4.13;2.03;;;;;;;;;;5066692;28;20028;-69
2022/06/15 09:02:29;;;;;;;5.13;2.00;;;;;;;;;;5066649;28;20266;-70
2022/06/15 09:05:32;;;;;;;7.47;2.13;;;;;;;;;;5063156;28;20031;-69
2022/06/15 09:08:13;;;;;;;10.98;2.17;;;;;;;;;;4990884;28;20057;-69
2022/06/15 09:10:53;;;;;;;5.85;1.85;;;;;;;;;;4984137;28;20030;-68
2022/06/15 09:13:28;;;;;;;8.30;2.20;;;;;;;;;;5022062;28;20100;-69
2022/06/15 09:16:03;;;;;;;9.70;2.13;;;;;;;;;;5068855;28;20009;-69
2022/06/15 09:18:31;;;;;;;10.48;1.92;;;;;;;;;;5070566;28;20016;-71
2022/06/15 09:20:59;;;;;;;5.32;1.85;;;;;;;;;;5068763;28;20012;-70
2022/06/15 09:23:29;;;;;;;7.32;2.42;;;;;;;;;;5069414;28;20024;-70
2022/06/15 09:25:58;;;;;;;13.02;2.08;;;;;;;;;;5059510;28;20020;-70
2022/06/15 09:28:25;;;;;;;9.23;2.10;;;;;;;;;;5065791;28;20052;-71
2022/06/15 09:30:52;;;;;;;4.93;1.90;;;;;;;;;;5061121;28;20012;-71
2022/06/15 09:33:17;;;;;;;10.48;2.35;;;;;;;;;;5071731;28;20112;-71
2022/06/15 09:35:47;;;;;;;10.70;1.97;;;;;;;;;;5070278;28;20087;-71
2022/06/15 09:38:13;;;;;;;5.05;1.60;;;;;;;;;;5070150;28;20435;-71
2022/06/15 09:40:43;;;;;;;5.38;2.25;;;;;;;;;;5066758;28;20074;-71
2022/06/15 09:43:14;;;;;;;6.63;2.03;;;;;;;;;;5065514;28;20032;-71
2022/06/15 09:45:40;;;;;;;8.98;1.77;;;;;;;;;;5054983;28;20359;-71
2022/06/15 09:48:27;;;;;;;7.30;1.83;;;;;;;;;;5067877;28;20038;-71
2022/06/15 09:51:02;;;;;;;9.13;1.85;;;;;;;;;;5075549;28;20024;-71
2022/06/15 09:53:27;;;;;;;8.93;1.83;;;;;;;;;;5064411;28;20021;-71
2022/06/15 09:55:56;;;;;;;4.67;1.73;;;;;;;;;;5068593;28;20530;-71
2022/06/15 09:58:23;;;;;;;8.50;2.20;;;;;;;;;;5047567;28;20289;-71
2022/06/15 10:00:49;;;;;;;3.28;1.73;;;;;;;;;;5071838;28;20043;-71
2022/06/15 10:03:20;;;;;;;6.55;1.75;;;;;;;;;;5062593;28;20021;-71
2022/06/15 10:05:46;;;;;;;6.80;1.83;;;;;;;;;;5058725;28;20032;-71
2022/06/15 10:08:13;;;;;;;3.70;1.60;;;;;;;;;;5063212;28;20052;-71
2022/06/15 10:10:44;;;;;;;5.20;1.73;;;;;;;;;;5057573;28;20049;-71
2022/06/15 10:13:15;;;;;;;5.32;1.77;;;;;;;;;;5070543;28;20021;-71
2022/06/15 10:15:43;;;;;;;7.40;1.90;;;;;;;;;;5063411;28;20013;-71
2022/06/15 10:18:14;;;;;;;5.00;1.73;;;;;;;;;;5068811;28;20028;-71
2022/06/15 10:20:41;;;;;;;2.60;1.45;;;;;;;;;;5071458;28;20020;-71
2022/06/15 10:23:15;;;;;;;7.80;1.65;;;;;;;;;;5063579;28;20111;-71
2022/06/15 10:25:47;;;;;;;4.97;1.48;;;;;;;;;;5063358;28;20095;-71
2022/06/15 10:28:14;;;;;;;8.20;2.10;;;;;;;;;;5067119;28;20477;-74
2022/06/15 10:30:48;;;;;;;4.55;1.92;;;;;;;;;;5071209;28;20028;-71
2022/06/15 10:33:17;;;;;;;12.00;2.50;;;;;;;;;;5062719;28;20098;-71
2022/06/15 10:35:48;;;;;;;4.53;1.75;;;;;;;;;;5060545;28;20473;-71
2022/06/15 10:38:15;;;;;;;3.83;1.65;;;;;;;;;;5060670;28;20036;-71
2022/06/15 10:40:49;;;;;;;4.88;1.70;;;;;;;;;;5069267;28;20389;-71
2022/06/15 10:43:16;;;;;;;6.20;2.33;;;;;;;;;;5069926;28;20051;-71
2022/06/15 10:45:56;;;;;;;6.75;2.05;;;;;;;;;;5068956;28;20021;-71
2022/06/15 10:48:31;;;;;;;6.53;1.80;;;;;;;;;;5059005;28;20503;-71
2022/06/15 10:51:04;;;;;;;5.80;1.83;;;;;;;;;;5071092;28;20074;-71
2022/06/15 10:53:49;;;;;;;11.00;2.08;;;;;;;;;;5065597;28;20024;-71
2022/06/15 11:02:11;;;;;;;5.43;1.90;;;;;;;;;;5066355;28;20099;-71
2022/06/15 11:04:56;;;;;;;6.88;1.60;;;;;;;;;;5058571;28;20112;-71
2022/06/15 11:07:21;;;;;;;6.88;1.90;;;;;;;;;;5054557;28;20028;-71
2022/06/15 11:09:55;;;;;;;7.30;1.65;;;;;;;;;;5070719;28;20073;-71
2022/06/15 11:12:23;;;;;;;7.72;1.70;;;;;;;;;;5071154;28;20035;-71
2022/06/15 11:14:50;;;;;;;7.65;1.30;;;;;;;;;;5059524;28;20067;-71
2022/06/15 11:20:16;;;;;;;9.82;2.05;;;;;;;;;;5057768;28;20504;-71
2022/06/15 11:22:42;;;;;;;9.43;1.52;;;;;;;;;;5071336;28;20021;-71
2022/06/15 11:25:12;;;;;;;6.50;1.55;;;;;;;;;;5068679;28;20469;-71
2022/06/15 11:27:40;;;;;;;6.80;1.90;;;;;;;;;;5053565;28;20021;-71
2022/06/15 11:30:26;;;;;;;8.98;1.80;;;;;;;;;;5062769;28;20862;-71
2022/06/15 11:32:54;;;;;;;8.60;1.60;;;;;;;;;;5068102;28;20074;-70
2022/06/15 11:35:26;;;;;;;13.57;2.13;;;;;;;;;;5055618;28;20092;-70
2022/06/15 11:37:51;;;;;;;5.60;2.17;;;;;;;;;;5066314;28;20013;-70
2022/06/15 11:40:21;;;;;;;6.80;1.75;;;;;;;;;;5065675;28;20544;-70
2022/06/15 11:42:53;;;;;;;3.30;1.73;;;;;;;;;;5067075;28;20016;-70
2022/06/15 11:45:19;;;;;;;4.53;1.77;;;;;;;;;;5058708;28;20432;-70
2022/06/15 11:48:02;;;;;;;3.95;1.75;;;;;;;;;;5052351;28;20033;-70
2022/06/15 11:50:34;;;;;;;4.80;1.92;;;;;;;;;;5067428;28;20027;-70
2022/06/15 11:53:22;;;;;;;6.60;1.73;;;;;;;;;;5064227;28;20032;-70
2022/06/15 11:56:11;;;;;;;7.32;1.95;;;;;;;;;;5018767;28;20040;-70
2022/06/15 11:58:45;;;;;;;7.73;1.50;;;;;;;;;;5054648;28;20060;-70
2022/06/15 12:01:34;;;;;;;4.85;1.77;;;;;;;;;;5071037;28;20103;-70
2022/06/15 12:04:23;;;;;;;5.70;1.77;;;;;;;;;;5065687;28;20017;-70
2022/06/15 12:07:03;;;;;;;6.38;1.42;;;;;;;;;;5068613;28;20091;-70
2022/06/15 12:09:52;;;;;;;5.55;2.03;;;;;;;;;;5056345;28;20025;-70
2022/06/15 12:12:37;;;;;;;12.30;2.55;;;;;;;;;;5060987;28;20035;-70
2022/06/15 12:15:06;;;;;;;4.53;1.75;;;;;;;;;;5063115;28;20017;-70
2022/06/15 12:17:34;;;;;;;3.92;1.70;;;;;;;;;;5063880;28;20044;-70
2022/06/15 12:20:16;;;;;;;11.65;1.83;;;;;;;;;;5064656;28;20047;-70
2022/06/15 12:22:41;;;;;;;5.82;1.92;;;;;;;;;;5066826;28;20461;-70
2022/06/15 12:25:17;;;;;;;10.33;2.80;;;;;;;;;;5049117;28;20028;-71
2022/06/15 12:27:55;;;;;;;5.95;1.70;;;;;;;;;;5054960;28;20019;-71
2022/06/15 12:30:39;;;;;;;7.80;1.98;;;;;;;;;;5067849;28;20027;-71
2022/06/15 12:33:13;;;;;;;11.05;2.42;;;;;;;;;;5062850;28;20082;-71
2022/06/15 12:35:41;;;;;;;5.68;2.30;;;;;;;;;;5068937;28;20028;-71
2022/06/15 12:38:16;;;;;;;3.35;1.60;;;;;;;;;;5064904;28;20086;-71
2022/06/15 12:40:43;;;;;;;6.43;1.90;;;;;;;;;;5053726;28;20378;-71
2022/06/15 12:43:08;;;;;;;7.72;2.40;;;;;;;;;;5053159;28;20028;-71
2022/06/15 12:45:34;;;;;;;6.33;2.90;;;;;;;;;;5059038;22;20056;-71
2022/06/15 12:48:03;;;;;;;6.85;1.92;;;;;;;;;;5033993;28;20491;-71
2022/06/15 12:50:33;;;;;;;5.93;1.67;;;;;;;;;;5044072;28;20028;-71
2022/06/15 12:53:17;;;;;;;9.73;2.30;;;;;;;;;;5047857;28;20025;-71
2022/06/15 12:55:47;;;;;;;6.28;2.15;;;;;;;;;;5041737;28;20112;-72
2022/06/15 12:58:19;;;;;;;4.57;1.60;;;;;;;;;;5045948;28;20052;-72
2022/06/15 13:00:59;;;;;;;7.80;1.95;;;;;;;;;;5044482;28;20452;-70
2022/06/15 13:03:45;;;;;;;4.95;1.85;;;;;;;;;;5036797;28;20013;-71
2022/06/15 13:06:22;;;;;;;6.32;1.98;;;;;;;;;;5045743;28;20692;-70
2022/06/15 13:08:57;;;;;;;7.47;2.17;;;;;;;;;;5046570;28;20105;-70
2022/06/15 13:11:22;;;;;;;9.07;2.17;;;;;;;;;;5040799;28;20075;-70
2022/06/15 13:13:50;;;;;;;8.43;2.30;;;;;;;;;;5048788;28;20025;-70
2022/06/15 13:16:29;;;;;;;7.63;2.30;;;;;;;;;;5027439;28;20053;-70
2022/06/15 13:18:55;;;;;;;3.72;1.80;;;;;;;;;;5043249;28;20013;-70
2022/06/15 13:21:22;;;;;;;7.30;2.33;;;;;;;;;;5040429;28;20023;-71
2022/06/15 13:23:58;;;;;;;6.22;2.15;;;;;;;;;;5039443;28;20021;-70
2022/06/15 13:26:25;;;;;;;8.40;2.50;;;;;;;;;;5028661;28;20262;-71
2022/06/15 13:29:03;;;;;;;6.05;1.92;;;;;;;;;;5042124;28;20021;-71
2022/06/15 13:31:52;;;;;;;8.32;2.30;;;;;;;;;;5045725;28;20039;-72
2022/06/15 13:34:33;;;;;;;9.85;2.45;;;;;;;;;;5043123;28;20095;-70
2022/06/15 13:37:20;;;;;;;4.82;2.10;;;;;;;;;;5042084;28;20029;-71
2022/06/15 13:39:56;;;;;;;6.95;2.00;;;;;;;;;;5046443;28;20103;-71
2022/06/15 13:42:30;;;;;;;7.07;1.80;;;;;;;;;;5044168;28;20100;-71
2022/06/15 13:45:01;;;;;;;8.30;2.80;;;;;;;;;;5035577;28;20115;-71
2022/06/15 13:47:30;;;;;;;11.38;1.95;;;;;;;;;;5046753;28;20171;-71
2022/06/15 13:49:57;;;;;;;11.38;2.67;;;;;;;;;;5041092;28;20107;-71
2022/06/15 13:52:27;;;;;;;5.15;1.88;;;;;;;;;;5041010;28;20025;-71
2022/06/15 13:54:52;;;;;;;10.57;2.10;;;;;;;;;;5043567;28;20036;-71
2022/06/15 13:57:37;;;;;;;7.47;2.03;;;;;;;;;;5042865;28;20021;-71
2022/06/15 14:00:03;;;;;;;9.02;2.20;;;;;;;;;;5039955;28;20096;-71
2022/06/15 14:02:47;;;;;;;4.22;1.67;;;;;;;;;;5038902;28;20107;-71
2022/06/15 14:05:15;;;;;;;5.93;1.85;;;;;;;;;;5026719;28;20028;-71
2022/06/15 14:07:49;;;;;;;7.97;1.92;;;;;;;;;;5043522;28;20025;-71
2022/06/15 14:10:32;;;;;;;12.48;2.03;;;;;;;;;;5042616;28;20104;-71
2022/06/15 14:13:06;;;;;;;4.78;1.88;;;;;;;;;;5039245;28;20075;-71
2022/06/15 14:15:31;;;;;;;8.23;2.50;;;;;;;;;;5039627;28;20017;-71
2022/06/15 14:18:15;;;;;;;3.83;1.70;;;;;;;;;;5044551;28;20422;-71
2022/06/15 14:20:44;;;;;;;6.55;1.75;;;;;;;;;;5049668;28;20442;-71
2022/06/15 14:23:10;;;;;;;9.47;2.10;;;;;;;;;;5043399;28;20025;-71
2022/06/15 14:25:39;;;;;;;9.60;2.33;;;;;;;;;;5035197;28;20032;-71
2022/06/15 14:28:06;;;;;;;3.90;2.10;;;;;;;;;;5045506;28;20107;-71
2022/06/15 14:30:32;;;;;;;6.68;1.80;;;;;;;;;;5044706;28;20060;-72
2022/06/15 14:32:59;;;;;;;7.57;2.20;;;;;;;;;;5040057;28;20063;-72
2022/06/15 14:35:24;;;;;;;7.00;2.20;;;;;;;;;;5026895;28;20477;-72
2022/06/15 14:37:56;;;;;;;6.40;2.00;;;;;;;;;;5047183;28;20021;-71
2022/06/15 14:40:28;;;;;;;5.63;2.40;;;;;;;;;;5040591;28;20017;-72
2022/06/15 14:42:56;;;;;;;6.72;2.78;;;;;;;;;;5038323;28;20029;-71
2022/06/15 14:45:26;;;;;;;5.40;2.15;;;;;;;;;;5046923;28;20087;-71
2022/06/15 14:47:54;;;;;;;7.25;2.17;;;;;;;;;;5046517;28;20048;-69
2022/06/15 14:50:19;;;;;;;7.70;1.75;;;;;;;;;;5036833;28;20029;-69
2022/06/15 14:52:45;;;;;;;7.18;3.88;;;;;;;;;;5044345;28;20024;-71
2022/06/15 14:55:30;;;;;;;9.53;1.90;;;;;;;;;;5037103;28;20029;-71
2022/06/15 14:58:15;;;;;;;10.07;2.25;;;;;;;;;;5028005;28;20115;-71
2022/06/15 15:00:41;;;;;;;5.65;2.08;;;;;;;;;;5044370;28;20096;-71